sensor_id;sensor_type;location;lat;lon;timestamp;P1;durP1;ratioP1;P2;durP2;ratioP2
21091;SDS011;10704;42.678;23.288;2024-01-30T00:06:06;10.60;;;3.88;;
21091;SDS011;10704;42.678;23.288;2024-01-30T00:08:32;8.98;;;3.83;;
21091;SDS011;10704;42.678;23.288;2024-01-30T00:10:58;8.63;;;3.70;;
21091;SDS011;10704;42.678;23.288;2024-01-30T00:13:24;7.60;;;3.50;;
21091;SDS011;10704;42.678;23.288;2024-01-30T00:15:50;8.55;;;3.72;;
21091;SDS011;10704;42.678;23.288;2024-01-30T00:18:16;8.88;;;4.18;;
21091;SDS011;10704;42.678;23.288;2024-01-30T00:20:41;7.35;;;3.13;;
21091;SDS011;10704;42.678;23.288;2024-01-30T00:23:08;7.65;;;3.83;;
21091;SDS011;10704;42.678;23.288;2024-01-30T00:25:34;6.88;;;4.03;;
21091;SDS011;10704;42.678;23.288;2024-01-30T00:28:00;8.68;;;4.20;;
21091;SDS011;10704;42.678;23.288;2024-01-30T00:30:26;9.25;;;3.72;;
21091;SDS011;10704;42.678;23.288;2024-01-30T00:32:53;8.77;;;3.78;;
21091;SDS011;10704;42.678;23.288;2024-01-30T00:35:19;8.18;;;3.72;;
21091;SDS011;10704;42.678;23.288;2024-01-30T00:37:47;7.53;;;3.65;;
21091;SDS011;10704;42.678;23.288;2024-01-30T00:40:13;6.32;;;3.08;;
21091;SDS011;10704;42.678;23.288;2024-01-30T00:42:44;7.30;;;2.83;;
21091;SDS011;10704;42.678;23.288;2024-01-30T00:45:14;6.35;;;3.40;;
21091;SDS011;10704;42.678;23.288;2024-01-30T00:47:41;8.68;;;4.00;;
21091;SDS011;10704;42.678;23.288;2024-01-30T00:50:07;6.47;;;3.50;;
21091;SDS011;10704;42.678;23.288;2024-01-30T00:52:33;8.52;;;3.95;;
21091;SDS011;10704;42.678;23.288;2024-01-30T00:54:59;8.60;;;3.88;;
21091;SDS011;10704;42.678;23.288;2024-01-30T00:57:25;7.47;;;3.40;;
21091;SDS011;10704;42.678;23.288;2024-01-30T00:59:52;9.88;;;4.57;;
21091;SDS011;10704;42.678;23.288;2024-01-30T01:02:18;7.10;;;3.67;;
21091;SDS011;10704;42.678;23.288;2024-01-30T01:04:44;12.68;;;3.97;;
21091;SDS011;10704;42.678;23.288;2024-01-30T01:07:10;9.48;;;4.03;;
21091;SDS011;10704;42.678;23.288;2024-01-30T01:09:37;8.13;;;4.05;;
21091;SDS011;10704;42.678;23.288;2024-01-30T01:12:03;8.38;;;3.47;;
21091;SDS011;10704;42.678;23.288;2024-01-30T01:14:29;7.13;;;3.75;;
21091;SDS011;10704;42.678;23.288;2024-01-30T01:16:56;8.52;;;3.92;;
21091;SDS011;10704;42.678;23.288;2024-01-30T01:19:22;8.00;;;3.65;;
21091;SDS011;10704;42.678;23.288;2024-01-30T01:21:48;8.48;;;4.18;;
21091;SDS011;10704;42.678;23.288;2024-01-30T01:24:14;7.78;;;3.58;;
21091;SDS011;10704;42.678;23.288;2024-01-30T01:26:40;9.55;;;4.40;;
21091;SDS011;10704;42.678;23.288;2024-01-30T01:29:06;7.40;;;4.03;;
21091;SDS011;10704;42.678;23.288;2024-01-30T01:31:40;10.85;;;5.25;;
21091;SDS011;10704;42.678;23.288;2024-01-30T01:34:12;9.48;;;4.40;;
21091;SDS011;10704;42.678;23.288;2024-01-30T01:36:38;8.70;;;4.30;;
21091;SDS011;10704;42.678;23.288;2024-01-30T01:39:05;9.18;;;4.35;;
21091;SDS011;10704;42.678;23.288;2024-01-30T01:41:31;9.77;;;4.00;;
21091;SDS011;10704;42.678;23.288;2024-01-30T01:43:58;9.55;;;4.45;;
21091;SDS011;10704;42.678;23.288;2024-01-30T01:46:29;7.70;;;4.13;;
21091;SDS011;10704;42.678;23.288;2024-01-30T01:48:57;8.07;;;3.80;;
21091;SDS011;10704;42.678;23.288;2024-01-30T01:51:24;7.15;;;3.40;;
21091;SDS011;10704;42.678;23.288;2024-01-30T01:53:53;13.63;;;6.05;;
21091;SDS011;10704;42.678;23.288;2024-01-30T01:56:19;8.63;;;3.80;;
21091;SDS011;10704;42.678;23.288;2024-01-30T01:58:45;7.90;;;3.63;;
21091;SDS011;10704;42.678;23.288;2024-01-30T02:01:13;8.40;;;3.92;;
21091;SDS011;10704;42.678;23.288;2024-01-30T02:03:40;7.60;;;3.97;;
21091;SDS011;10704;42.678;23.288;2024-01-30T02:06:07;6.97;;;3.38;;
21091;SDS011;10704;42.678;23.288;2024-01-30T02:08:33;8.95;;;3.83;;
21091;SDS011;10704;42.678;23.288;2024-01-30T02:10:59;8.63;;;3.92;;
21091;SDS011;10704;42.678;23.288;2024-01-30T02:13:25;8.98;;;3.38;;
21091;SDS011;10704;42.678;23.288;2024-01-30T02:15:51;6.95;;;3.50;;
21091;SDS011;10704;42.678;23.288;2024-01-30T02:20:44;6.63;;;3.22;;
21091;SDS011;10704;42.678;23.288;2024-01-30T02:23:11;9.27;;;3.50;;
21091;SDS011;10704;42.678;23.288;2024-01-30T02:25:39;8.73;;;3.90;;
21091;SDS011;10704;42.678;23.288;2024-01-30T02:28:11;7.78;;;3.22;;
21091;SDS011;10704;42.678;23.288;2024-01-30T02:30:38;8.57;;;3.85;;
21091;SDS011;10704;42.678;23.288;2024-01-30T02:33:04;8.43;;;3.50;;
21091;SDS011;10704;42.678;23.288;2024-01-30T02:35:31;7.47;;;3.20;;
21091;SDS011;10704;42.678;23.288;2024-01-30T02:37:57;7.90;;;3.10;;
21091;SDS011;10704;42.678;23.288;2024-01-30T02:40:23;7.30;;;3.30;;
21091;SDS011;10704;42.678;23.288;2024-01-30T02:42:49;6.72;;;3.15;;
21091;SDS011;10704;42.678;23.288;2024-01-30T02:45:15;7.57;;;3.53;;
21091;SDS011;10704;42.678;23.288;2024-01-30T02:47:41;6.30;;;3.28;;
21091;SDS011;10704;42.678;23.288;2024-01-30T02:50:07;8.23;;;3.35;;
21091;SDS011;10704;42.678;23.288;2024-01-30T02:52:33;6.80;;;3.25;;
21091;SDS011;10704;42.678;23.288;2024-01-30T02:55:00;6.80;;;3.15;;
21091;SDS011;10704;42.678;23.288;2024-01-30T02:57:26;6.95;;;3.67;;
21091;SDS011;10704;42.678;23.288;2024-01-30T02:59:52;8.05;;;3.20;;
21091;SDS011;10704;42.678;23.288;2024-01-30T03:02:18;5.93;;;3.10;;
21091;SDS011;10704;42.678;23.288;2024-01-30T03:04:43;7.40;;;3.25;;
21091;SDS011;10704;42.678;23.288;2024-01-30T03:07:09;8.20;;;3.00;;
21091;SDS011;10704;42.678;23.288;2024-01-30T03:09:36;6.57;;;3.28;;
21091;SDS011;10704;42.678;23.288;2024-01-30T03:12:02;6.70;;;3.28;;
21091;SDS011;10704;42.678;23.288;2024-01-30T03:14:30;8.02;;;3.63;;
21091;SDS011;10704;42.678;23.288;2024-01-30T03:16:57;6.78;;;3.20;;
21091;SDS011;10704;42.678;23.288;2024-01-30T03:19:23;7.80;;;3.17;;
21091;SDS011;10704;42.678;23.288;2024-01-30T03:21:49;7.20;;;3.03;;
21091;SDS011;10704;42.678;23.288;2024-01-30T03:24:15;5.57;;;2.85;;
21091;SDS011;10704;42.678;23.288;2024-01-30T03:26:42;7.88;;;3.30;;
21091;SDS011;10704;42.678;23.288;2024-01-30T03:29:08;7.28;;;3.00;;
21091;SDS011;10704;42.678;23.288;2024-01-30T03:31:34;7.70;;;3.45;;
21091;SDS011;10704;42.678;23.288;2024-01-30T03:34:01;7.95;;;3.40;;
21091;SDS011;10704;42.678;23.288;2024-01-30T03:36:27;5.22;;;2.58;;
21091;SDS011;10704;42.678;23.288;2024-01-30T03:38:53;6.63;;;2.75;;
21091;SDS011;10704;42.678;23.288;2024-01-30T03:41:19;6.47;;;3.13;;
21091;SDS011;10704;42.678;23.288;2024-01-30T03:43:47;9.38;;;3.10;;
21091;SDS011;10704;42.678;23.288;2024-01-30T03:46:14;10.07;;;3.65;;
21091;SDS011;10704;42.678;23.288;2024-01-30T03:48:40;5.47;;;2.53;;
21091;SDS011;10704;42.678;23.288;2024-01-30T03:51:06;8.00;;;2.90;;
21091;SDS011;10704;42.678;23.288;2024-01-30T03:53:32;8.98;;;3.15;;
21091;SDS011;10704;42.678;23.288;2024-01-30T03:55:58;7.30;;;2.83;;
21091;SDS011;10704;42.678;23.288;2024-01-30T03:58:24;6.07;;;2.42;;
21091;SDS011;10704;42.678;23.288;2024-01-30T04:00:50;5.95;;;2.60;;
21091;SDS011;10704;42.678;23.288;2024-01-30T04:03:15;5.70;;;2.47;;
21091;SDS011;10704;42.678;23.288;2024-01-30T04:05:41;7.65;;;3.03;;
21091;SDS011;10704;42.678;23.288;2024-01-30T04:08:08;4.65;;;2.33;;
21091;SDS011;10704;42.678;23.288;2024-01-30T04:10:34;6.15;;;2.90;;
21091;SDS011;10704;42.678;23.288;2024-01-30T04:13:00;6.43;;;2.72;;
21091;SDS011;10704;42.678;23.288;2024-01-30T04:15:26;5.18;;;2.42;;
21091;SDS011;10704;42.678;23.288;2024-01-30T04:17:53;8.02;;;3.15;;
21091;SDS011;10704;42.678;23.288;2024-01-30T04:20:19;5.88;;;2.80;;
21091;SDS011;10704;42.678;23.288;2024-01-30T04:22:45;7.60;;;3.08;;
21091;SDS011;10704;42.678;23.288;2024-01-30T04:25:12;7.60;;;3.22;;
21091;SDS011;10704;42.678;23.288;2024-01-30T04:27:38;7.82;;;2.78;;
21091;SDS011;10704;42.678;23.288;2024-01-30T04:30:05;10.30;;;3.33;;
21091;SDS011;10704;42.678;23.288;2024-01-30T04:32:31;7.35;;;3.00;;
21091;SDS011;10704;42.678;23.288;2024-01-30T04:34:58;6.60;;;3.15;;
21091;SDS011;10704;42.678;23.288;2024-01-30T04:37:24;5.90;;;2.80;;
21091;SDS011;10704;42.678;23.288;2024-01-30T04:39:50;7.15;;;3.15;;
21091;SDS011;10704;42.678;23.288;2024-01-30T04:42:16;7.03;;;3.30;;
21091;SDS011;10704;42.678;23.288;2024-01-30T04:44:42;5.60;;;2.67;;
21091;SDS011;10704;42.678;23.288;2024-01-30T04:47:09;6.35;;;2.92;;
21091;SDS011;10704;42.678;23.288;2024-01-30T04:49:40;7.35;;;2.72;;
21091;SDS011;10704;42.678;23.288;2024-01-30T04:52:06;5.95;;;2.78;;
21091;SDS011;10704;42.678;23.288;2024-01-30T04:54:34;6.40;;;2.78;;
21091;SDS011;10704;42.678;23.288;2024-01-30T04:57:00;10.77;;;3.42;;
21091;SDS011;10704;42.678;23.288;2024-01-30T04:59:30;7.57;;;2.85;;
21091;SDS011;10704;42.678;23.288;2024-01-30T05:05:44;7.78;;;3.10;;
21091;SDS011;10704;42.678;23.288;2024-01-30T05:08:10;7.78;;;2.88;;
21091;SDS011;10704;42.678;23.288;2024-01-30T05:10:36;8.82;;;2.90;;
21091;SDS011;10704;42.678;23.288;2024-01-30T05:13:02;5.95;;;2.92;;
21091;SDS011;10704;42.678;23.288;2024-01-30T05:15:28;7.03;;;3.10;;
21091;SDS011;10704;42.678;23.288;2024-01-30T05:17:54;8.20;;;2.85;;
21091;SDS011;10704;42.678;23.288;2024-01-30T05:20:20;12.05;;;4.45;;
21091;SDS011;10704;42.678;23.288;2024-01-30T05:22:46;7.38;;;3.03;;
21091;SDS011;10704;42.678;23.288;2024-01-30T05:25:12;7.40;;;3.33;;
21091;SDS011;10704;42.678;23.288;2024-01-30T05:27:38;8.13;;;3.20;;
21091;SDS011;10704;42.678;23.288;2024-01-30T05:30:05;6.65;;;3.17;;
21091;SDS011;10704;42.678;23.288;2024-01-30T05:32:32;10.43;;;3.42;;
21091;SDS011;10704;42.678;23.288;2024-01-30T05:34:58;8.50;;;3.58;;
21091;SDS011;10704;42.678;23.288;2024-01-30T05:37:24;7.63;;;3.53;;
21091;SDS011;10704;42.678;23.288;2024-01-30T05:39:50;6.78;;;3.28;;
21091;SDS011;10704;42.678;23.288;2024-01-30T05:42:16;8.90;;;3.67;;
21091;SDS011;10704;42.678;23.288;2024-01-30T05:44:42;10.73;;;5.15;;
21091;SDS011;10704;42.678;23.288;2024-01-30T05:47:08;7.70;;;3.53;;
21091;SDS011;10704;42.678;23.288;2024-01-30T05:49:34;10.50;;;4.25;;
21091;SDS011;10704;42.678;23.288;2024-01-30T05:52:01;8.30;;;4.85;;
21091;SDS011;10704;42.678;23.288;2024-01-30T05:54:29;8.43;;;4.95;;
21091;SDS011;10704;42.678;23.288;2024-01-30T05:56:54;12.50;;;5.97;;
21091;SDS011;10704;42.678;23.288;2024-01-30T05:59:20;12.32;;;4.25;;
21091;SDS011;10704;42.678;23.288;2024-01-30T06:01:47;8.02;;;3.35;;
21091;SDS011;10704;42.678;23.288;2024-01-30T06:04:13;8.40;;;3.50;;
21091;SDS011;10704;42.678;23.288;2024-01-30T06:06:40;7.75;;;3.53;;
21091;SDS011;10704;42.678;23.288;2024-01-30T06:09:06;8.43;;;3.60;;
21091;SDS011;10704;42.678;23.288;2024-01-30T06:11:34;9.10;;;3.72;;
21091;SDS011;10704;42.678;23.288;2024-01-30T06:14:01;11.38;;;4.18;;
21091;SDS011;10704;42.678;23.288;2024-01-30T06:16:26;7.60;;;3.25;;
21091;SDS011;10704;42.678;23.288;2024-01-30T06:18:55;9.68;;;3.65;;
21091;SDS011;10704;42.678;23.288;2024-01-30T06:21:21;10.32;;;3.85;;
21091;SDS011;10704;42.678;23.288;2024-01-30T06:23:47;9.23;;;3.58;;
21091;SDS011;10704;42.678;23.288;2024-01-30T06:26:13;8.77;;;3.33;;
21091;SDS011;10704;42.678;23.288;2024-01-30T06:28:39;11.73;;;4.03;;
21091;SDS011;10704;42.678;23.288;2024-01-30T06:31:05;11.23;;;4.82;;
21091;SDS011;10704;42.678;23.288;2024-01-30T06:33:31;8.93;;;3.88;;
21091;SDS011;10704;42.678;23.288;2024-01-30T06:35:57;7.40;;;3.17;;
21091;SDS011;10704;42.678;23.288;2024-01-30T06:38:23;7.40;;;3.30;;
21091;SDS011;10704;42.678;23.288;2024-01-30T06:40:49;8.13;;;3.47;;
21091;SDS011;10704;42.678;23.288;2024-01-30T06:43:15;10.90;;;4.13;;
21091;SDS011;10704;42.678;23.288;2024-01-30T06:45:41;8.25;;;3.63;;
21091;SDS011;10704;42.678;23.288;2024-01-30T06:48:08;12.18;;;5.03;;
21091;SDS011;10704;42.678;23.288;2024-01-30T06:50:34;6.85;;;3.13;;
21091;SDS011;10704;42.678;23.288;2024-01-30T06:53:00;8.27;;;3.50;;
21091;SDS011;10704;42.678;23.288;2024-01-30T06:55:25;7.07;;;3.15;;
21091;SDS011;10704;42.678;23.288;2024-01-30T06:57:51;8.27;;;3.53;;
21091;SDS011;10704;42.678;23.288;2024-01-30T07:00:17;6.60;;;3.20;;
21091;SDS011;10704;42.678;23.288;2024-01-30T07:02:44;6.75;;;3.08;;
21091;SDS011;10704;42.678;23.288;2024-01-30T07:05:10;7.63;;;3.28;;
21091;SDS011;10704;42.678;23.288;2024-01-30T07:07:36;6.25;;;2.50;;
21091;SDS011;10704;42.678;23.288;2024-01-30T07:10:02;7.63;;;3.33;;
21091;SDS011;10704;42.678;23.288;2024-01-30T07:12:30;5.85;;;2.72;;
21091;SDS011;10704;42.678;23.288;2024-01-30T07:14:56;5.35;;;3.28;;
21091;SDS011;10704;42.678;23.288;2024-01-30T07:17:24;7.50;;;2.60;;
21091;SDS011;10704;42.678;23.288;2024-01-30T07:19:50;8.55;;;3.10;;
21091;SDS011;10704;42.678;23.288;2024-01-30T07:22:16;6.25;;;2.72;;
21091;SDS011;10704;42.678;23.288;2024-01-30T07:24:42;9.13;;;3.88;;
21091;SDS011;10704;42.678;23.288;2024-01-30T07:27:13;7.63;;;3.13;;
21091;SDS011;10704;42.678;23.288;2024-01-30T07:29:40;8.38;;;3.15;;
21091;SDS011;10704;42.678;23.288;2024-01-30T07:32:06;6.28;;;2.83;;
21091;SDS011;10704;42.678;23.288;2024-01-30T07:34:31;8.00;;;2.45;;
21091;SDS011;10704;42.678;23.288;2024-01-30T07:36:57;5.63;;;2.42;;
21091;SDS011;10704;42.678;23.288;2024-01-30T07:39:23;5.05;;;2.45;;
21091;SDS011;10704;42.678;23.288;2024-01-30T07:41:49;4.40;;;1.63;;
21091;SDS011;10704;42.678;23.288;2024-01-30T07:44:15;4.72;;;2.10;;
21091;SDS011;10704;42.678;23.288;2024-01-30T07:46:41;5.85;;;2.20;;
21091;SDS011;10704;42.678;23.288;2024-01-30T07:49:07;5.50;;;2.05;;
21091;SDS011;10704;42.678;23.288;2024-01-30T07:51:33;5.97;;;2.70;;
21091;SDS011;10704;42.678;23.288;2024-01-30T07:53:59;6.55;;;2.75;;
21091;SDS011;10704;42.678;23.288;2024-01-30T07:56:25;5.57;;;2.88;;
21091;SDS011;10704;42.678;23.288;2024-01-30T07:58:50;6.90;;;3.15;;
21091;SDS011;10704;42.678;23.288;2024-01-30T08:01:16;5.15;;;2.42;;
21091;SDS011;10704;42.678;23.288;2024-01-30T08:03:43;6.22;;;3.42;;
21091;SDS011;10704;42.678;23.288;2024-01-30T08:06:09;5.18;;;2.55;;
21091;SDS011;10704;42.678;23.288;2024-01-30T08:08:35;8.23;;;2.70;;
21091;SDS011;10704;42.678;23.288;2024-01-30T08:11:03;5.72;;;2.25;;
21091;SDS011;10704;42.678;23.288;2024-01-30T08:13:29;6.47;;;3.00;;
21091;SDS011;10704;42.678;23.288;2024-01-30T08:15:55;6.68;;;3.28;;
21091;SDS011;10704;42.678;23.288;2024-01-30T08:18:20;4.50;;;2.85;;
21091;SDS011;10704;42.678;23.288;2024-01-30T08:20:46;6.13;;;2.78;;
21091;SDS011;10704;42.678;23.288;2024-01-30T08:23:12;6.47;;;2.97;;
21091;SDS011;10704;42.678;23.288;2024-01-30T08:25:38;5.85;;;2.78;;
21091;SDS011;10704;42.678;23.288;2024-01-30T08:28:04;7.13;;;3.30;;
21091;SDS011;10704;42.678;23.288;2024-01-30T08:30:30;8.20;;;2.97;;
21091;SDS011;10704;42.678;23.288;2024-01-30T08:32:56;7.50;;;2.75;;
21091;SDS011;10704;42.678;23.288;2024-01-30T08:35:22;7.43;;;3.70;;
21091;SDS011;10704;42.678;23.288;2024-01-30T08:37:48;5.43;;;2.80;;
21091;SDS011;10704;42.678;23.288;2024-01-30T08:40:14;6.88;;;2.75;;
21091;SDS011;10704;42.678;23.288;2024-01-30T08:42:40;5.72;;;2.65;;
21091;SDS011;10704;42.678;23.288;2024-01-30T08:45:06;6.65;;;2.95;;
21091;SDS011;10704;42.678;23.288;2024-01-30T08:47:32;7.15;;;4.00;;
21091;SDS011;10704;42.678;23.288;2024-01-30T08:49:58;6.28;;;3.08;;
21091;SDS011;10704;42.678;23.288;2024-01-30T08:52:24;10.48;;;3.72;;
21091;SDS011;10704;42.678;23.288;2024-01-30T08:54:50;7.63;;;3.58;;
21091;SDS011;10704;42.678;23.288;2024-01-30T08:57:16;8.82;;;3.80;;
21091;SDS011;10704;42.678;23.288;2024-01-30T08:59:42;9.13;;;3.25;;
21091;SDS011;10704;42.678;23.288;2024-01-30T09:02:10;8.80;;;3.85;;
21091;SDS011;10704;42.678;23.288;2024-01-30T09:04:38;10.95;;;3.88;;
21091;SDS011;10704;42.678;23.288;2024-01-30T09:07:04;10.02;;;4.47;;
21091;SDS011;10704;42.678;23.288;2024-01-30T09:09:33;6.90;;;3.40;;
21091;SDS011;10704;42.678;23.288;2024-01-30T09:11:59;6.30;;;3.30;;
21091;SDS011;10704;42.678;23.288;2024-01-30T09:14:29;6.32;;;3.40;;
21091;SDS011;10704;42.678;23.288;2024-01-30T09:16:56;7.03;;;3.33;;
21091;SDS011;10704;42.678;23.288;2024-01-30T09:19:22;8.00;;;3.35;;
21091;SDS011;10704;42.678;23.288;2024-01-30T09:21:47;8.35;;;2.97;;
21091;SDS011;10704;42.678;23.288;2024-01-30T09:24:13;8.15;;;3.45;;
21091;SDS011;10704;42.678;23.288;2024-01-30T09:26:39;5.82;;;2.97;;
21091;SDS011;10704;42.678;23.288;2024-01-30T09:29:05;5.97;;;2.92;;
21091;SDS011;10704;42.678;23.288;2024-01-30T09:31:31;6.88;;;3.10;;
21091;SDS011;10704;42.678;23.288;2024-01-30T09:33:57;7.72;;;3.15;;
21091;SDS011;10704;42.678;23.288;2024-01-30T09:36:23;5.97;;;2.90;;
21091;SDS011;10704;42.678;23.288;2024-01-30T09:38:49;5.70;;;2.65;;
21091;SDS011;10704;42.678;23.288;2024-01-30T09:41:16;6.25;;;2.47;;
21091;SDS011;10704;42.678;23.288;2024-01-30T09:43:45;6.38;;;3.10;;
21091;SDS011;10704;42.678;23.288;2024-01-30T09:46:17;9.48;;;3.38;;
21091;SDS011;10704;42.678;23.288;2024-01-30T09:48:48;6.82;;;3.35;;
21091;SDS011;10704;42.678;23.288;2024-01-30T09:51:15;4.13;;;2.33;;
21091;SDS011;10704;42.678;23.288;2024-01-30T09:53:42;5.10;;;2.78;;
21091;SDS011;10704;42.678;23.288;2024-01-30T09:56:12;7.15;;;2.85;;
21091;SDS011;10704;42.678;23.288;2024-01-30T09:58:39;6.68;;;3.10;;
21091;SDS011;10704;42.678;23.288;2024-01-30T10:01:05;6.63;;;2.88;;
21091;SDS011;10704;42.678;23.288;2024-01-30T10:03:31;5.80;;;2.95;;
21091;SDS011;10704;42.678;23.288;2024-01-30T10:05:57;7.82;;;3.60;;
21091;SDS011;10704;42.678;23.288;2024-01-30T10:08:25;5.55;;;3.15;;
21091;SDS011;10704;42.678;23.288;2024-01-30T10:10:52;9.43;;;3.35;;
21091;SDS011;10704;42.678;23.288;2024-01-30T10:13:18;5.22;;;2.30;;
21091;SDS011;10704;42.678;23.288;2024-01-30T10:15:44;5.68;;;2.83;;
21091;SDS011;10704;42.678;23.288;2024-01-30T10:18:10;7.03;;;3.83;;
21091;SDS011;10704;42.678;23.288;2024-01-30T10:20:36;5.03;;;2.63;;
21091;SDS011;10704;42.678;23.288;2024-01-30T10:23:02;4.63;;;2.33;;
21091;SDS011;10704;42.678;23.288;2024-01-30T10:25:33;4.80;;;2.67;;
21091;SDS011;10704;42.678;23.288;2024-01-30T10:27:59;6.32;;;2.67;;
21091;SDS011;10704;42.678;23.288;2024-01-30T10:30:25;5.47;;;2.53;;
21091;SDS011;10704;42.678;23.288;2024-01-30T10:32:52;5.68;;;2.90;;
21091;SDS011;10704;42.678;23.288;2024-01-30T10:35:18;6.75;;;2.70;;
21091;SDS011;10704;42.678;23.288;2024-01-30T10:37:44;5.50;;;2.67;;
21091;SDS011;10704;42.678;23.288;2024-01-30T10:40:13;4.85;;;2.00;;
21091;SDS011;10704;42.678;23.288;2024-01-30T10:42:43;7.05;;;2.70;;
21091;SDS011;10704;42.678;23.288;2024-01-30T10:45:11;5.25;;;2.35;;
21091;SDS011;10704;42.678;23.288;2024-01-30T10:47:39;8.13;;;2.88;;
21091;SDS011;10704;42.678;23.288;2024-01-30T10:50:07;5.88;;;3.10;;
21091;SDS011;10704;42.678;23.288;2024-01-30T10:52:34;6.78;;;2.75;;
21091;SDS011;10704;42.678;23.288;2024-01-30T10:55:02;5.82;;;2.75;;
21091;SDS011;10704;42.678;23.288;2024-01-30T10:57:33;6.35;;;2.97;;
21091;SDS011;10704;42.678;23.288;2024-01-30T11:00:02;6.13;;;3.08;;
21091;SDS011;10704;42.678;23.288;2024-01-30T11:02:36;7.03;;;3.30;;
21091;SDS011;10704;42.678;23.288;2024-01-30T11:05:13;4.65;;;2.30;;
21091;SDS011;10704;42.678;23.288;2024-01-30T11:07:40;7.35;;;2.20;;
21091;SDS011;10704;42.678;23.288;2024-01-30T11:10:06;4.60;;;2.60;;
21091;SDS011;10704;42.678;23.288;2024-01-30T11:12:38;5.95;;;2.17;;
21091;SDS011;10704;42.678;23.288;2024-01-30T11:15:18;4.50;;;2.30;;
21091;SDS011;10704;42.678;23.288;2024-01-30T11:20:16;4.10;;;2.40;;
21091;SDS011;10704;42.678;23.288;2024-01-30T11:22:53;6.50;;;2.75;;
21091;SDS011;10704;42.678;23.288;2024-01-30T11:25:22;4.38;;;2.00;;
21091;SDS011;10704;42.678;23.288;2024-01-30T11:27:53;4.82;;;2.50;;
21091;SDS011;10704;42.678;23.288;2024-01-30T11:30:26;7.40;;;2.33;;
21091;SDS011;10704;42.678;23.288;2024-01-30T11:33:04;6.15;;;2.65;;
21091;SDS011;10704;42.678;23.288;2024-01-30T11:38:04;4.60;;;2.20;;
21091;SDS011;10704;42.678;23.288;2024-01-30T11:40:31;5.03;;;2.40;;
21091;SDS011;10704;42.678;23.288;2024-01-30T11:42:59;7.13;;;2.25;;
21091;SDS011;10704;42.678;23.288;2024-01-30T11:45:26;5.75;;;2.35;;
21091;SDS011;10704;42.678;23.288;2024-01-30T11:47:53;6.15;;;2.33;;
21091;SDS011;10704;42.678;23.288;2024-01-30T11:50:19;5.47;;;2.53;;
21091;SDS011;10704;42.678;23.288;2024-01-30T11:52:46;5.40;;;2.60;;
21091;SDS011;10704;42.678;23.288;2024-01-30T11:55:13;5.07;;;2.20;;
21091;SDS011;10704;42.678;23.288;2024-01-30T11:57:40;5.40;;;3.10;;
21091;SDS011;10704;42.678;23.288;2024-01-30T12:00:13;7.55;;;3.70;;
21091;SDS011;10704;42.678;23.288;2024-01-30T12:02:40;6.10;;;2.85;;
21091;SDS011;10704;42.678;23.288;2024-01-30T12:05:06;6.53;;;3.10;;
21091;SDS011;10704;42.678;23.288;2024-01-30T12:07:33;4.75;;;2.63;;
21091;SDS011;10704;42.678;23.288;2024-01-30T12:09:59;7.60;;;2.97;;
21091;SDS011;10704;42.678;23.288;2024-01-30T12:12:26;6.30;;;2.92;;
21091;SDS011;10704;42.678;23.288;2024-01-30T12:14:53;7.95;;;2.67;;
21091;SDS011;10704;42.678;23.288;2024-01-30T12:17:29;6.35;;;3.03;;
21091;SDS011;10704;42.678;23.288;2024-01-30T12:22:51;6.82;;;3.00;;
21091;SDS011;10704;42.678;23.288;2024-01-30T12:25:18;6.07;;;2.88;;
21091;SDS011;10704;42.678;23.288;2024-01-30T12:27:46;6.30;;;3.00;;
21091;SDS011;10704;42.678;23.288;2024-01-30T12:30:16;9.35;;;3.38;;
21091;SDS011;10704;42.678;23.288;2024-01-30T12:32:45;6.63;;;3.20;;
21091;SDS011;10704;42.678;23.288;2024-01-30T12:35:18;5.80;;;3.47;;
21091;SDS011;10704;42.678;23.288;2024-01-30T12:37:45;9.27;;;3.50;;
21091;SDS011;10704;42.678;23.288;2024-01-30T12:40:13;6.57;;;3.28;;
21091;SDS011;10704;42.678;23.288;2024-01-30T12:42:43;8.73;;;3.45;;
21091;SDS011;10704;42.678;23.288;2024-01-30T12:45:14;4.97;;;2.75;;
21091;SDS011;10704;42.678;23.288;2024-01-30T12:47:41;5.80;;;2.88;;
21091;SDS011;10704;42.678;23.288;2024-01-30T12:50:07;5.68;;;3.08;;
21091;SDS011;10704;42.678;23.288;2024-01-30T12:52:34;6.60;;;3.53;;
21091;SDS011;10704;42.678;23.288;2024-01-30T12:55:00;6.93;;;3.30;;
21091;SDS011;10704;42.678;23.288;2024-01-30T12:57:27;5.43;;;2.95;;
21091;SDS011;10704;42.678;23.288;2024-01-30T12:59:52;5.32;;;3.05;;
21091;SDS011;10704;42.678;23.288;2024-01-30T13:02:18;6.57;;;3.28;;
21091;SDS011;10704;42.678;23.288;2024-01-30T13:04:45;7.22;;;3.05;;
21091;SDS011;10704;42.678;23.288;2024-01-30T13:07:10;6.47;;;2.92;;
21091;SDS011;10704;42.678;23.288;2024-01-30T13:09:37;5.22;;;3.08;;
21091;SDS011;10704;42.678;23.288;2024-01-30T13:12:03;6.18;;;3.00;;
21091;SDS011;10704;42.678;23.288;2024-01-30T13:14:29;5.97;;;3.35;;
21091;SDS011;10704;42.678;23.288;2024-01-30T13:16:55;5.60;;;2.67;;
21091;SDS011;10704;42.678;23.288;2024-01-30T13:19:21;6.20;;;3.25;;
21091;SDS011;10704;42.678;23.288;2024-01-30T13:21:47;6.07;;;3.35;;
21091;SDS011;10704;42.678;23.288;2024-01-30T13:24:13;7.28;;;3.88;;
21091;SDS011;10704;42.678;23.288;2024-01-30T13:26:39;9.60;;;3.80;;
21091;SDS011;10704;42.678;23.288;2024-01-30T13:29:07;7.70;;;3.35;;
21091;SDS011;10704;42.678;23.288;2024-01-30T13:31:33;10.02;;;4.25;;
21091;SDS011;10704;42.678;23.288;2024-01-30T13:34:00;7.20;;;3.25;;
21091;SDS011;10704;42.678;23.288;2024-01-30T13:36:25;8.30;;;4.65;;
21091;SDS011;10704;42.678;23.288;2024-01-30T13:38:51;9.20;;;5.55;;
21091;SDS011;10704;42.678;23.288;2024-01-30T13:41:17;8.55;;;4.50;;
21091;SDS011;10704;42.678;23.288;2024-01-30T13:43:44;8.98;;;4.95;;
21091;SDS011;10704;42.678;23.288;2024-01-30T13:46:11;8.10;;;4.80;;
21091;SDS011;10704;42.678;23.288;2024-01-30T13:48:37;7.43;;;4.15;;
21091;SDS011;10704;42.678;23.288;2024-01-30T13:51:03;9.48;;;4.55;;
21091;SDS011;10704;42.678;23.288;2024-01-30T13:53:29;6.38;;;3.35;;
21091;SDS011;10704;42.678;23.288;2024-01-30T13:55:55;6.85;;;3.60;;
21091;SDS011;10704;42.678;23.288;2024-01-30T13:58:21;7.70;;;3.92;;
21091;SDS011;10704;42.678;23.288;2024-01-30T14:00:47;8.10;;;4.35;;
21091;SDS011;10704;42.678;23.288;2024-01-30T14:03:13;10.45;;;4.95;;
21091;SDS011;10704;42.678;23.288;2024-01-30T14:05:38;8.13;;;3.67;;
21091;SDS011;10704;42.678;23.288;2024-01-30T14:08:05;8.07;;;4.22;;
21091;SDS011;10704;42.678;23.288;2024-01-30T14:10:32;10.68;;;5.63;;
21091;SDS011;10704;42.678;23.288;2024-01-30T14:12:58;11.73;;;5.18;;
21091;SDS011;10704;42.678;23.288;2024-01-30T14:15:24;8.57;;;4.10;;
21091;SDS011;10704;42.678;23.288;2024-01-30T14:17:50;7.75;;;4.00;;
21091;SDS011;10704;42.678;23.288;2024-01-30T14:20:16;8.55;;;3.95;;
21091;SDS011;10704;42.678;23.288;2024-01-30T14:22:42;8.23;;;4.07;;
21091;SDS011;10704;42.678;23.288;2024-01-30T14:25:08;7.30;;;3.53;;
21091;SDS011;10704;42.678;23.288;2024-01-30T14:27:35;7.05;;;3.83;;
21091;SDS011;10704;42.678;23.288;2024-01-30T14:30:02;7.13;;;3.72;;
21091;SDS011;10704;42.678;23.288;2024-01-30T14:32:28;9.43;;;4.07;;
21091;SDS011;10704;42.678;23.288;2024-01-30T14:34:54;7.22;;;4.18;;
21091;SDS011;10704;42.678;23.288;2024-01-30T14:37:21;6.65;;;3.45;;
21091;SDS011;10704;42.678;23.288;2024-01-30T14:39:47;8.80;;;4.00;;
21091;SDS011;10704;42.678;23.288;2024-01-30T14:42:14;7.35;;;3.58;;
21091;SDS011;10704;42.678;23.288;2024-01-30T14:44:41;7.65;;;3.15;;
21091;SDS011;10704;42.678;23.288;2024-01-30T14:47:07;8.75;;;3.92;;
21091;SDS011;10704;42.678;23.288;2024-01-30T14:49:33;7.70;;;4.20;;